createdAt,value
2023-04-10T00:01:38.628Z,417.73
2023-04-10T00:04:07.371Z,403.58
2023-04-10T00:06:35.999Z,374.58
2023-04-10T00:09:04.481Z,399.75
2023-04-10T00:11:32.858Z,415.83
2023-04-10T00:14:01.287Z,451.15
2023-04-10T00:16:31.342Z,428.33
2023-04-10T00:18:59.619Z,458.23
2023-04-10T00:21:28.339Z,465.55
2023-04-10T00:23:56.607Z,460.15
2023-04-10T00:26:26.268Z,430.52
2023-04-10T00:28:54.548Z,426.80
2023-04-10T00:31:23.301Z,449.95
2023-04-10T00:33:53.231Z,459.88
2023-04-10T00:36:21.810Z,473.77
2023-04-10T00:38:50.318Z,482.33
2023-04-10T00:41:18.659Z,432.58
2023-04-10T00:43:47.240Z,420.58
2023-04-10T00:46:15.785Z,411.67
2023-04-10T00:48:44.204Z,444.58
2023-04-10T00:51:13.959Z,452.42
2023-04-10T00:53:42.277Z,435.58
2023-04-10T00:56:11.037Z,420.90
2023-04-10T00:58:39.368Z,407.40
2023-04-10T01:01:08.641Z,449.35
2023-04-10T01:03:37.750Z,482.00
2023-04-10T01:06:09.763Z,465.05
2023-04-10T01:08:46.658Z,464.25
2023-04-10T01:11:19.987Z,422.40
2023-04-10T01:13:51.777Z,458.33
2023-04-10T01:16:24.175Z,415.83
2023-04-10T01:18:56.986Z,411.00
2023-04-10T01:21:25.997Z,464.58
2023-04-10T01:24:16.505Z,437.15
2023-04-10T01:26:59.765Z,489.50
2023-04-10T01:29:31.464Z,495.83
2023-04-10T01:32:03.274Z,481.08
2023-04-10T01:34:37.315Z,471.23
2023-04-10T01:37:08.795Z,463.70
2023-04-10T01:39:39.043Z,489.75
2023-04-10T01:42:08.468Z,496.90
2023-04-10T01:44:42.730Z,439.52
2023-04-10T01:47:11.205Z,433.30
2023-04-10T01:49:44.331Z,427.65
2023-04-10T01:52:13.053Z,418.77
2023-04-10T01:54:41.525Z,476.85
2023-04-10T01:57:10.734Z,437.75
2023-04-10T01:59:41.037Z,441.30
2023-04-10T02:02:11.771Z,442.15
2023-04-10T02:04:40.567Z,474.10
2023-04-10T02:07:13.247Z,459.42
2023-04-10T02:09:59.535Z,440.77
2023-04-10T02:12:31.014Z,469.63
2023-04-10T02:15:02.716Z,429.30
2023-04-10T02:17:32.671Z,437.98
2023-04-10T02:20:01.407Z,438.70
2023-04-10T02:22:29.797Z,437.95
2023-04-10T02:24:58.801Z,423.95
2023-04-10T02:27:30.993Z,406.67
2023-04-10T02:30:00.805Z,478.02
2023-04-10T02:32:29.258Z,438.58
2023-04-10T02:34:57.854Z,481.00
2023-04-10T02:37:26.643Z,420.35
2023-04-10T02:39:55.619Z,422.25
2023-04-10T02:42:24.186Z,479.25
2023-04-10T02:44:52.477Z,486.60
2023-04-10T02:47:22.125Z,463.80
2023-04-10T02:49:50.600Z,478.02
2023-04-10T02:52:19.001Z,477.50
2023-04-10T02:54:47.465Z,481.08
2023-04-10T02:57:15.796Z,450.85
2023-04-10T02:59:44.529Z,423.70
2023-04-10T03:02:12.973Z,473.15
2023-04-10T03:04:42.873Z,465.20
2023-04-10T03:07:11.347Z,463.00
2023-04-10T03:09:39.660Z,485.50
2023-04-10T03:12:08.026Z,488.75
2023-04-10T03:14:36.506Z,438.73
2023-04-10T03:17:04.844Z,445.17
2023-04-10T03:19:33.174Z,442.40
2023-04-10T03:22:03.597Z,452.23
2023-04-10T03:24:31.882Z,454.55
2023-04-10T03:27:00.178Z,472.98
2023-04-10T03:29:28.484Z,468.85
2023-04-10T03:31:57.472Z,461.33
2023-04-10T03:34:26.006Z,484.23
2023-04-10T03:36:54.281Z,478.67
2023-04-10T03:39:24.655Z,469.88
2023-04-10T03:41:52.926Z,463.02
2023-04-10T03:44:22.519Z,445.85
2023-04-10T03:46:50.851Z,481.55
2023-04-10T03:49:19.414Z,465.10
2023-04-10T03:51:47.725Z,451.30
2023-04-10T03:54:16.043Z,452.35
2023-04-10T03:56:45.691Z,423.92
2023-04-10T03:59:13.992Z,434.20
2023-04-10T04:01:42.396Z,467.10
2023-04-10T04:04:10.957Z,449.13
2023-04-10T04:06:39.298Z,489.42
2023-04-10T04:09:08.064Z,433.33
2023-04-10T04:11:36.394Z,446.80
2023-04-10T04:14:06.140Z,445.83
2023-04-10T04:16:34.504Z,478.98
2023-04-10T04:19:02.856Z,470.85
2023-04-10T04:21:31.472Z,500.35
2023-04-10T04:23:59.883Z,474.10
2023-04-10T04:26:28.258Z,472.10
2023-04-10T04:28:59.553Z,429.13
2023-04-10T04:31:32.445Z,447.20
2023-04-10T04:34:00.983Z,455.80
2023-04-10T04:36:29.414Z,438.52
2023-04-10T04:38:57.715Z,427.20
2023-04-10T04:41:26.070Z,448.55
2023-04-10T04:43:56.433Z,416.25
2023-04-10T04:46:24.981Z,444.58
2023-04-10T04:48:54.895Z,445.30
2023-04-10T04:51:23.196Z,494.23
2023-04-10T04:53:51.856Z,491.42
2023-04-10T04:56:20.395Z,462.27
2023-04-10T04:58:48.713Z,483.80
2023-04-10T05:01:17.111Z,610.72
2023-04-10T05:03:45.901Z,492.58
2023-04-10T05:06:15.804Z,478.35
2023-04-10T05:08:44.147Z,461.98
2023-04-10T05:11:12.483Z,473.20
2023-04-10T05:13:40.887Z,438.55
2023-04-10T05:16:09.808Z,416.80
2023-04-10T05:18:38.316Z,388.00
2023-04-10T05:21:07.139Z,400.70
2023-04-10T05:23:37.011Z,458.15
2023-04-10T05:26:06.100Z,313.00
2023-04-10T05:28:34.406Z,270.63
2023-04-10T05:31:02.931Z,207.32
2023-04-10T05:33:31.261Z,238.88
2023-04-10T05:35:59.634Z,253.73
2023-04-10T05:38:28.012Z,269.98
2023-04-10T05:40:57.745Z,301.42
2023-04-10T05:43:26.053Z,273.65
2023-04-10T05:45:54.488Z,302.45
2023-04-10T05:48:26.030Z,318.10
2023-04-10T05:50:54.354Z,304.27
2023-04-10T05:53:25.392Z,323.33
2023-04-10T05:55:54.568Z,321.27
2023-04-10T05:58:24.251Z,293.25
2023-04-10T06:00:52.802Z,306.85
2023-04-10T06:03:21.488Z,298.05
2023-04-10T06:05:49.996Z,292.73
2023-04-10T06:08:19.392Z,316.05
2023-04-10T06:10:49.011Z,287.92
2023-04-10T06:13:17.310Z,317.65
2023-04-10T06:15:47.089Z,312.38
2023-04-10T06:18:15.798Z,283.75
2023-04-10T06:20:44.149Z,307.52
2023-04-10T06:23:14.205Z,291.00
2023-04-10T06:25:42.556Z,277.75
2023-04-10T06:28:10.865Z,298.10
2023-04-10T06:30:39.258Z,292.75
2023-04-10T06:33:09.109Z,298.98
2023-04-10T06:35:38.585Z,314.15
2023-04-10T06:38:06.964Z,333.13
2023-04-10T06:40:35.528Z,327.02
2023-04-10T06:43:03.859Z,325.45
2023-04-10T06:45:32.446Z,289.10
2023-04-10T06:48:00.880Z,293.40
2023-04-10T06:50:33.265Z,465.92
2023-04-10T06:53:01.785Z,284.77
2023-04-10T06:55:30.641Z,291.02
2023-04-10T06:57:58.977Z,317.40
2023-04-10T07:00:27.445Z,285.50
2023-04-10T07:02:55.906Z,508.00
2023-04-10T07:05:24.468Z,373.02
2023-04-10T07:07:54.234Z,281.52
2023-04-10T07:10:22.703Z,274.27
2023-04-10T07:12:51.176Z,281.35
2023-04-10T07:15:19.628Z,299.58
2023-04-10T07:17:49.523Z,271.02
2023-04-10T07:20:18.138Z,278.13
2023-04-10T07:22:46.567Z,421.15
2023-04-10T07:25:16.652Z,297.70
2023-04-10T07:27:45.025Z,277.92
2023-04-10T07:30:13.955Z,263.17
2023-04-10T07:32:42.692Z,485.55
2023-04-10T07:35:11.554Z,280.77
2023-04-10T07:37:40.763Z,253.43
2023-04-10T07:40:10.526Z,247.68
2023-04-10T07:42:40.289Z,281.35
2023-04-10T07:45:09.981Z,289.30
2023-04-10T07:47:38.628Z,242.40
2023-04-10T07:50:08.722Z,300.58
2023-04-10T07:52:37.168Z,257.90
2023-04-10T07:55:06.036Z,228.15
2023-04-10T07:57:34.381Z,249.48
2023-04-10T08:00:04.489Z,280.95
2023-04-10T08:02:33.340Z,220.25
2023-04-10T08:05:02.128Z,311.17
2023-04-10T08:07:31.310Z,214.52
2023-04-10T08:09:59.757Z,246.43
2023-04-10T08:12:28.155Z,198.38
2023-04-10T08:14:56.510Z,237.07
2023-04-10T08:17:26.231Z,256.35
2023-04-10T08:19:54.623Z,286.65
2023-04-10T08:22:23.027Z,177.70
2023-04-10T08:24:51.494Z,237.15
2023-04-10T08:27:19.914Z,186.80
2023-04-10T08:29:48.428Z,186.45
2023-04-10T08:32:16.802Z,178.35
2023-04-10T08:34:46.583Z,198.75
2023-04-10T08:37:15.667Z,204.38
2023-04-10T08:39:44.017Z,188.70
2023-04-10T08:42:12.704Z,242.30
2023-04-10T08:44:41.932Z,168.93
2023-04-10T08:47:10.751Z,365.88
2023-04-10T08:49:46.200Z,179.18
2023-04-10T08:52:17.360Z,164.48
2023-04-10T08:54:48.519Z,156.35
2023-04-10T08:57:20.566Z,154.00
2023-04-10T08:59:49.019Z,172.55
2023-04-10T09:02:17.725Z,160.18
2023-04-10T09:04:50.080Z,207.57
2023-04-10T09:07:20.464Z,142.52
2023-04-10T09:09:48.819Z,153.73
2023-04-10T09:12:18.280Z,183.70
2023-04-10T09:14:48.534Z,146.35
2023-04-10T09:17:19.043Z,126.85
2023-04-10T09:19:48.414Z,213.90
2023-04-10T09:22:17.458Z,133.50
2023-04-10T09:24:48.032Z,136.35
2023-04-10T09:27:31.290Z,147.52
2023-04-10T09:30:01.002Z,164.63
2023-04-10T09:32:41.051Z,154.82
2023-04-10T09:35:11.654Z,130.93
2023-04-10T09:37:42.502Z,149.38
2023-04-10T09:40:24.351Z,128.30
2023-04-10T09:42:53.209Z,136.93
2023-04-10T09:45:22.858Z,180.43
2023-04-10T09:48:04.508Z,204.45
2023-04-10T09:50:39.646Z,255.70
2023-04-10T09:53:09.082Z,132.70
2023-04-10T09:55:38.991Z,153.88
2023-04-10T09:58:08.202Z,136.40
2023-04-10T10:00:41.901Z,135.25
2023-04-10T10:03:12.274Z,197.15
2023-04-10T10:05:42.670Z,197.07
2023-04-10T10:08:12.832Z,141.73
2023-04-10T10:10:49.156Z,222.45
2023-04-10T10:13:19.507Z,142.90
2023-04-10T10:15:52.061Z,145.80
2023-04-10T10:18:24.081Z,179.45
2023-04-10T10:20:52.596Z,165.48
2023-04-10T10:23:21.647Z,151.30
2023-04-10T10:25:52.412Z,256.70
2023-04-10T10:28:21.651Z,218.85
2023-04-10T10:30:51.477Z,188.30
2023-04-10T10:33:20.446Z,194.20
2023-04-10T10:35:50.186Z,172.55
2023-04-10T10:38:19.760Z,199.65
2023-04-10T10:40:56.059Z,383.35
2023-04-10T10:43:36.663Z,228.63
2023-04-10T10:46:08.155Z,240.48
2023-04-10T10:48:36.557Z,226.95
2023-04-10T10:51:05.172Z,218.90
2023-04-10T10:53:40.864Z,249.70
2023-04-10T10:56:36.012Z,252.10
2023-04-10T10:59:04.486Z,375.33
2023-04-10T11:01:32.931Z,311.05
2023-04-10T11:04:02.305Z,337.63
2023-04-10T11:06:52.171Z,362.05
2023-04-10T11:09:46.906Z,333.02
2023-04-10T11:12:16.985Z,368.95
2023-04-10T11:14:46.441Z,303.38
2023-04-10T11:17:14.844Z,313.35
2023-04-10T11:20:00.363Z,349.08
2023-04-10T11:22:29.022Z,358.08
2023-04-10T11:24:59.364Z,500.58
2023-04-10T11:27:48.595Z,389.33
2023-04-10T11:30:34.175Z,375.50
2023-04-10T11:33:04.110Z,425.65
2023-04-10T11:35:33.431Z,331.33
2023-04-10T11:38:16.155Z,343.15
2023-04-10T11:41:03.893Z,371.05
2023-04-10T11:43:35.091Z,349.40
2023-04-10T11:46:05.291Z,343.30
2023-04-10T11:48:34.161Z,376.00
2023-04-10T11:51:09.565Z,374.08
2023-04-10T11:53:38.346Z,359.17
2023-04-10T11:56:08.483Z,350.73
2023-04-10T11:58:38.171Z,356.15
2023-04-10T12:01:07.462Z,383.05
2023-04-10T12:03:37.737Z,450.95
2023-04-10T12:06:09.635Z,355.95
2023-04-10T12:08:39.046Z,352.00
2023-04-10T12:11:08.309Z,362.88
2023-04-10T12:13:38.355Z,343.67
2023-04-10T12:16:09.449Z,459.63
2023-04-10T12:18:38.240Z,370.35
2023-04-10T12:21:08.581Z,354.25
2023-04-10T12:23:39.615Z,377.27
2023-04-10T12:26:19.445Z,476.63
2023-04-10T12:28:55.505Z,383.05
2023-04-10T12:31:30.856Z,366.52
2023-04-10T12:33:59.423Z,358.42
2023-04-10T12:36:30.008Z,385.77
2023-04-10T12:38:59.556Z,379.80
2023-04-10T12:41:30.805Z,416.42
2023-04-10T12:44:10.830Z,388.98
2023-04-10T12:46:39.779Z,431.85
2023-04-10T12:49:12.824Z,444.17
2023-04-10T12:51:46.459Z,407.02
2023-04-10T12:54:29.277Z,391.48
2023-04-10T12:56:57.788Z,439.38
2023-04-10T12:59:27.857Z,435.45
2023-04-10T13:01:56.501Z,403.25
2023-04-10T13:04:25.094Z,527.88
2023-04-10T13:06:53.668Z,449.80
2023-04-10T13:09:22.332Z,447.98
2023-04-10T13:11:51.776Z,488.30
2023-04-10T13:14:20.641Z,468.95
2023-04-10T13:16:50.454Z,468.77
2023-04-10T13:19:18.767Z,497.40
2023-04-10T13:21:47.100Z,495.10
2023-04-10T13:24:16.796Z,549.78
2023-04-10T13:26:45.590Z,472.40
2023-04-10T13:29:13.959Z,470.30
2023-04-10T13:31:42.309Z,471.50
2023-04-10T13:34:12.022Z,458.02
2023-04-10T13:36:40.464Z,429.13
2023-04-10T13:39:08.919Z,477.10
2023-04-10T13:41:37.265Z,550.00
2023-04-10T13:44:05.861Z,465.80
2023-04-10T13:46:34.436Z,465.00
2023-04-10T13:49:02.902Z,433.60
2023-04-10T13:51:32.588Z,479.13
2023-04-10T13:54:02.835Z,548.88
2023-04-10T13:56:31.212Z,474.35
2023-04-10T13:58:59.538Z,464.73
2023-04-10T14:01:27.928Z,462.58
2023-04-10T14:03:56.602Z,475.13
2023-04-10T14:06:25.215Z,493.30
2023-04-10T14:08:55.102Z,487.70
2023-04-10T14:11:23.807Z,502.35
2023-04-10T14:13:52.219Z,487.35
2023-04-10T14:16:20.799Z,506.10
2023-04-10T14:18:49.304Z,447.80
2023-04-10T14:21:19.434Z,555.78
2023-04-10T14:23:49.127Z,494.50
2023-04-10T14:26:18.790Z,482.27
2023-04-10T14:28:47.106Z,485.27
2023-04-10T14:31:15.470Z,512.70
2023-04-10T14:33:43.821Z,491.10
2023-04-10T14:36:12.168Z,501.67
2023-04-10T14:38:40.557Z,487.33
2023-04-10T14:41:09.466Z,484.85
2023-04-10T14:43:39.258Z,452.67
2023-04-10T14:46:08.120Z,489.63
2023-04-10T14:48:36.540Z,467.33
2023-04-10T14:51:05.600Z,515.55
2023-04-10T14:53:33.914Z,483.70
2023-04-10T14:56:02.285Z,460.35
2023-04-10T14:58:30.627Z,463.13
2023-04-10T15:01:02.696Z,448.17
2023-04-10T15:03:31.222Z,533.83
2023-04-10T15:06:02.846Z,470.70
2023-04-10T15:08:31.315Z,470.25
2023-04-10T15:11:00.259Z,473.15
2023-04-10T15:13:28.856Z,483.08
2023-04-10T15:15:57.565Z,484.15
2023-04-10T15:18:27.259Z,518.83
2023-04-10T15:20:56.219Z,484.05
2023-04-10T15:23:24.617Z,488.42
2023-04-10T15:25:53.528Z,534.72
2023-04-10T15:28:21.883Z,532.05
2023-04-10T15:30:50.640Z,451.95
2023-04-10T15:33:19.060Z,479.73
2023-04-10T15:35:50.542Z,469.98
2023-04-10T15:38:18.983Z,505.27
2023-04-10T15:40:47.328Z,518.90
2023-04-10T15:43:15.680Z,443.65
2023-04-10T15:45:44.029Z,456.40
2023-04-10T15:48:12.354Z,487.88
2023-04-10T15:50:41.458Z,434.25
2023-04-10T15:53:11.245Z,469.52
2023-04-10T15:55:41.502Z,437.20
2023-04-10T15:58:09.863Z,428.90
2023-04-10T16:00:38.203Z,434.95
2023-04-10T16:03:06.899Z,422.85
2023-04-10T16:05:35.340Z,445.70
2023-04-10T16:08:04.422Z,415.17
2023-04-10T16:10:34.150Z,464.58
2023-04-10T16:13:04.360Z,417.40
2023-04-10T16:15:35.277Z,416.17
2023-04-10T16:18:04.411Z,424.55
2023-04-10T16:20:33.044Z,427.13
2023-04-10T16:23:02.703Z,414.45
2023-04-10T16:25:31.183Z,389.55
2023-04-10T16:28:02.413Z,411.17
2023-04-10T16:30:30.748Z,395.13
2023-04-10T16:32:59.175Z,384.73
2023-04-10T16:35:27.647Z,387.35
2023-04-10T16:37:56.257Z,431.80
2023-04-10T16:40:27.545Z,386.33
2023-04-10T16:42:55.864Z,413.17
2023-04-10T16:45:25.534Z,452.23
2023-04-10T16:47:53.913Z,474.40
2023-04-10T16:50:22.275Z,385.45
2023-04-10T16:52:50.643Z,380.23
2023-04-10T16:55:19.445Z,333.02
2023-04-10T16:57:48.057Z,380.83
2023-04-10T17:00:16.903Z,362.38
2023-04-10T17:02:48.665Z,452.80
2023-04-10T17:05:17.796Z,341.92
2023-04-10T17:07:46.154Z,316.42
2023-04-10T17:10:14.564Z,286.92
2023-04-10T17:12:43.500Z,298.95
2023-04-10T17:15:12.568Z,308.02
2023-04-10T17:17:41.093Z,308.40
2023-04-10T17:20:12.043Z,282.15
2023-04-10T17:22:40.696Z,413.33
2023-04-10T17:25:10.199Z,273.25
2023-04-10T17:27:40.574Z,253.32
2023-04-10T17:30:13.441Z,261.88
2023-04-10T17:32:42.104Z,260.73
2023-04-10T17:35:11.997Z,221.63
2023-04-10T17:37:40.350Z,255.77
2023-04-10T17:40:10.033Z,238.07
2023-04-10T17:42:38.360Z,225.68
2023-04-10T17:45:07.878Z,236.35
2023-04-10T17:47:36.636Z,257.20
2023-04-10T17:50:05.467Z,216.50
2023-04-10T17:52:35.483Z,274.80
2023-04-10T17:55:03.891Z,230.88
2023-04-10T17:57:32.228Z,317.00
2023-04-10T18:00:00.575Z,206.95
2023-04-10T18:02:28.983Z,232.25
2023-04-10T18:04:58.064Z,204.00
2023-04-10T18:07:26.416Z,230.00
2023-04-10T18:09:56.202Z,264.35
2023-04-10T18:12:24.524Z,221.80
2023-04-10T18:14:52.833Z,238.45
2023-04-10T18:17:21.522Z,218.30
2023-04-10T18:19:50.836Z,190.25
2023-04-10T18:22:19.497Z,223.45
2023-04-10T18:24:48.190Z,212.13
2023-04-10T18:27:17.949Z,225.23
2023-04-10T18:29:47.016Z,200.43
2023-04-10T18:32:15.458Z,282.52
2023-04-10T18:34:43.768Z,268.65
2023-04-10T18:37:12.062Z,224.45
2023-04-10T18:39:40.375Z,331.52
2023-04-10T18:42:10.662Z,202.95
2023-04-10T18:44:40.426Z,209.75
2023-04-10T18:47:10.948Z,193.48
2023-04-10T18:49:39.429Z,306.25
2023-04-10T18:52:08.039Z,194.45
2023-04-10T18:54:36.824Z,273.55
2023-04-10T18:57:05.355Z,237.80
2023-04-10T18:59:33.694Z,198.52
2023-04-10T19:02:03.721Z,233.88
2023-04-10T19:04:32.281Z,215.70
2023-04-10T19:07:00.653Z,307.15
2023-04-10T19:09:28.962Z,286.15
2023-04-10T19:11:57.944Z,290.45
2023-04-10T19:14:26.317Z,254.07
2023-04-10T19:16:54.650Z,331.02
2023-04-10T19:19:24.683Z,230.77
2023-04-10T19:21:52.974Z,500.52
2023-04-10T19:24:21.280Z,339.40
2023-04-10T19:26:49.586Z,354.80
2023-04-10T19:29:17.958Z,352.67
2023-04-10T19:31:46.617Z,360.38
2023-04-10T19:34:14.965Z,363.73
2023-04-10T19:36:44.647Z,420.17
2023-04-10T19:39:13.015Z,418.67
2023-04-10T19:41:42.597Z,425.58
2023-04-10T19:44:11.183Z,376.27
2023-04-10T19:46:39.543Z,383.88
2023-04-10T19:49:07.972Z,492.23
2023-04-10T19:51:36.745Z,473.40
2023-04-10T19:54:06.767Z,459.85
2023-04-10T19:56:37.690Z,483.25
2023-04-10T19:59:06.078Z,430.35
2023-04-10T20:01:34.817Z,497.73
2023-04-10T20:04:03.409Z,445.13
2023-04-10T20:06:32.026Z,425.45
2023-04-10T20:09:00.444Z,493.85
2023-04-10T20:11:30.817Z,432.27
2023-04-10T20:13:59.242Z,542.92
2023-04-10T20:16:27.624Z,542.20
2023-04-10T20:18:56.210Z,444.55
2023-04-10T20:21:24.965Z,510.20
2023-04-10T20:23:54.902Z,531.83
2023-04-10T20:26:25.530Z,556.15
2023-04-10T20:28:55.715Z,569.08
2023-04-10T20:31:24.321Z,533.75
2023-04-10T20:33:53.811Z,545.75
2023-04-10T20:36:22.236Z,465.00
2023-04-10T20:38:50.598Z,499.70
2023-04-10T20:41:18.947Z,512.95
2023-04-10T20:43:47.469Z,524.90
2023-04-10T20:46:17.148Z,485.77
2023-04-10T20:48:45.804Z,505.85
2023-04-10T20:51:14.328Z,447.88
2023-04-10T20:53:42.707Z,518.58
2023-04-10T20:56:11.254Z,490.52
2023-04-10T20:58:39.592Z,542.85
2023-04-10T21:01:10.088Z,533.10
2023-04-10T21:03:40.072Z,533.60
2023-04-10T21:06:09.967Z,459.17
2023-04-10T21:08:38.287Z,562.30
2023-04-10T21:11:06.834Z,538.88
2023-04-10T21:13:37.057Z,409.88
2023-04-10T21:16:07.461Z,468.95
2023-04-10T21:18:35.837Z,545.83
2023-04-10T21:21:06.235Z,416.75
2023-04-10T21:23:34.573Z,450.08
2023-04-10T21:26:03.433Z,490.83
2023-04-10T21:28:31.782Z,480.10
2023-04-10T21:31:00.145Z,493.15
2023-04-10T21:33:28.494Z,507.13
2023-04-10T21:35:57.014Z,509.73
2023-04-10T21:38:26.832Z,512.28
2023-04-10T21:40:55.814Z,441.08
2023-04-10T21:43:24.138Z,521.17
2023-04-10T21:45:52.566Z,541.95
2023-04-10T21:48:21.515Z,563.72
2023-04-10T21:50:52.874Z,470.45
2023-04-10T21:53:21.194Z,468.83
2023-04-10T21:55:51.402Z,508.48
2023-04-10T21:58:19.739Z,458.45
2023-04-10T22:00:49.815Z,538.03
2023-04-10T22:03:20.066Z,410.85
2023-04-10T22:05:50.138Z,494.65
2023-04-10T22:08:20.045Z,465.40
2023-04-10T22:10:50.446Z,487.92
2023-04-10T22:13:29.593Z,486.38
2023-04-10T22:15:59.093Z,411.10
2023-04-10T22:18:27.403Z,481.38
2023-04-10T22:20:55.798Z,527.33
2023-04-10T22:23:24.249Z,491.80
2023-04-10T22:25:53.976Z,515.40
2023-04-10T22:28:22.388Z,552.35
2023-04-10T22:30:50.772Z,500.35
2023-04-10T22:33:19.217Z,516.63
2023-04-10T22:35:47.799Z,415.75
2023-04-10T22:38:16.141Z,456.83
2023-04-10T22:40:44.466Z,549.60
2023-04-10T22:43:14.165Z,498.77
2023-04-10T22:45:44.048Z,459.13
2023-04-10T22:48:12.472Z,505.45
2023-04-10T22:50:40.968Z,534.83
2023-04-10T22:53:10.016Z,472.08
2023-04-10T22:55:39.136Z,547.20
2023-04-10T22:58:08.091Z,504.33
2023-04-10T23:00:37.876Z,466.33
2023-04-10T23:03:06.333Z,538.72
2023-04-10T23:05:34.732Z,540.80
2023-04-10T23:08:03.030Z,538.17
2023-04-10T23:10:31.328Z,491.65
2023-04-10T23:12:59.844Z,489.23
2023-04-10T23:15:28.193Z,495.27
2023-04-10T23:17:58.110Z,482.52
2023-04-10T23:20:26.488Z,504.85
2023-04-10T23:22:56.671Z,492.92
2023-04-10T23:25:25.268Z,512.28
2023-04-10T23:27:53.621Z,515.47
2023-04-10T23:30:22.065Z,531.90
2023-04-10T23:32:50.535Z,502.98
2023-04-10T23:35:20.472Z,520.83
2023-04-10T23:37:50.444Z,498.35
2023-04-10T23:40:19.251Z,487.75
2023-04-10T23:42:47.752Z,503.77
2023-04-10T23:45:16.224Z,465.85
2023-04-10T23:47:44.610Z,528.92
2023-04-10T23:50:13.107Z,502.73
2023-04-10T23:52:42.807Z,479.88
2023-04-10T23:55:11.523Z,535.30
2023-04-10T23:57:39.975Z,499.55
